createdAt,value
2018-02-22T01:41:13.194Z,1025.94
2018-02-22T01:41:13.766Z,1025.94
2018-02-22T01:41:14.366Z,1025.92
2018-02-22T01:41:14.965Z,1025.93
2018-02-22T01:41:15.565Z,1025.97
2018-02-22T01:41:16.167Z,1025.95
2018-02-22T01:41:16.764Z,1025.96
2018-02-22T01:41:17.364Z,1025.97
2018-02-22T01:42:10.821Z,1025.98
2018-02-22T01:42:11.418Z,1025.96
2018-02-22T01:42:12.018Z,1025.96
2018-02-22T01:42:12.617Z,1025.94
2018-02-22T01:42:13.216Z,1025.97
2018-02-22T01:42:13.816Z,1025.95
2018-02-22T01:42:14.416Z,1025.99
2018-02-22T01:42:15.016Z,1026.00
2018-02-22T01:43:09.500Z,1025.98
2018-02-22T01:43:10.095Z,1025.98
2018-02-22T01:43:10.693Z,1025.94
2018-02-22T01:43:11.299Z,1025.95
2018-02-22T01:43:11.892Z,1025.95
2018-02-22T01:43:12.493Z,1025.98
2018-02-22T01:43:13.092Z,1025.96
2018-02-22T01:43:13.691Z,1025.94
2018-02-22T01:44:07.151Z,1025.98
2018-02-22T01:44:07.747Z,1025.92
2018-02-22T01:44:08.345Z,1025.93
2018-02-22T01:44:08.948Z,1025.93
2018-02-22T01:44:09.546Z,1025.95
2018-02-22T01:44:10.144Z,1025.93
2018-02-22T01:44:10.743Z,1025.97
2018-02-22T01:44:11.345Z,1025.94
2018-02-22T01:45:05.879Z,1025.98
2018-02-22T01:45:06.425Z,1025.98
2018-02-22T01:45:07.023Z,1025.95
2018-02-22T01:45:07.633Z,1025.92
2018-02-22T01:45:08.221Z,1025.95
2018-02-22T01:45:08.820Z,1025.95
2018-02-22T01:45:09.421Z,1025.96
2018-02-22T01:45:10.017Z,1025.98
2018-02-22T01:46:03.478Z,1025.98
2018-02-22T01:46:04.076Z,1025.95
2018-02-22T01:46:04.674Z,1025.97
2018-02-22T01:46:05.273Z,1025.97
2018-02-22T01:46:05.875Z,1026.02
2018-02-22T01:46:06.473Z,1026.00
2018-02-22T01:46:07.076Z,1025.98
2018-02-22T01:46:07.673Z,1025.96
2018-02-22T01:47:01.131Z,1025.97
2018-02-22T01:47:01.727Z,1025.99
2018-02-22T01:47:02.325Z,1026.01
2018-02-22T01:47:02.926Z,1025.99
2018-02-22T01:47:03.526Z,1025.99
2018-02-22T01:47:04.125Z,1025.98
2018-02-22T01:47:04.725Z,1025.96
2018-02-22T01:47:05.325Z,1025.95
2018-02-22T01:47:59.806Z,1026.00
2018-02-22T01:48:00.403Z,1025.95
2018-02-22T01:48:01.002Z,1025.99
2018-02-22T01:48:01.602Z,1025.96
2018-02-22T01:48:02.201Z,1025.98
2018-02-22T01:48:02.801Z,1025.98
2018-02-22T01:48:03.401Z,1026.01
2018-02-22T01:48:04.000Z,1025.99
2018-02-22T01:48:57.458Z,1025.98
2018-02-22T01:48:58.055Z,1026.01
2018-02-22T01:48:58.653Z,1026.00
2018-02-22T01:48:59.255Z,1025.97
2018-02-22T01:48:59.857Z,1025.97
2018-02-22T01:49:00.453Z,1025.99
2018-02-22T01:49:01.053Z,1026.00
2018-02-22T01:49:01.655Z,1026.00
2018-02-22T01:49:56.134Z,1026.00
2018-02-22T01:49:56.729Z,1025.96
2018-02-22T01:49:57.328Z,1025.95
2018-02-22T01:49:57.936Z,1025.98
2018-02-22T01:49:58.528Z,1026.01
2018-02-22T01:49:59.128Z,1025.96
2018-02-22T01:49:59.733Z,1025.99
2018-02-22T01:50:00.327Z,1025.99
2018-02-22T01:50:54.840Z,1025.99
2018-02-22T01:50:55.405Z,1025.99
2018-02-22T01:50:56.004Z,1025.99
2018-02-22T01:50:56.605Z,1025.97
2018-02-22T01:50:57.204Z,1026.00
2018-02-22T01:50:57.804Z,1025.98
2018-02-22T01:50:58.404Z,1026.01
2018-02-22T01:50:59.003Z,1025.97
2018-02-22T01:51:53.510Z,1025.98
2018-02-22T01:51:54.081Z,1025.99
2018-02-22T01:51:54.682Z,1025.96
2018-02-22T01:51:55.281Z,1025.99
2018-02-22T01:51:55.882Z,1025.97
2018-02-22T01:51:56.481Z,1026.02
2018-02-22T01:51:57.082Z,1025.99
2018-02-22T01:51:57.680Z,1025.97
2018-02-22T01:52:52.187Z,1026.00
2018-02-22T01:52:52.758Z,1026.01
2018-02-22T01:52:53.358Z,1025.99
2018-02-22T01:52:53.957Z,1026.00
2018-02-22T01:52:54.557Z,1025.99
2018-02-22T01:52:55.158Z,1026.01
2018-02-22T01:52:55.756Z,1025.97
2018-02-22T01:52:56.359Z,1026.01
2018-02-22T01:53:50.861Z,1025.99
2018-02-22T01:53:51.432Z,1025.99
2018-02-22T01:53:52.033Z,1025.99
2018-02-22T01:53:52.632Z,1025.96
2018-02-22T01:53:53.231Z,1025.97
2018-02-22T01:53:53.833Z,1025.99
2018-02-22T01:53:54.432Z,1026.02
2018-02-22T01:53:55.034Z,1026.02
2018-02-22T01:54:49.536Z,1026.00
2018-02-22T01:54:50.114Z,1026.00
2018-02-22T01:54:50.707Z,1025.98
2018-02-22T01:54:51.307Z,1025.98
2018-02-22T01:54:51.908Z,1025.99
2018-02-22T01:54:52.508Z,1026.00
2018-02-22T01:54:53.109Z,1025.96
2018-02-22T01:54:53.709Z,1025.96
2018-02-22T01:55:47.165Z,1025.96
2018-02-22T01:55:47.761Z,1025.97
2018-02-22T01:55:48.361Z,1025.97
2018-02-22T01:55:48.961Z,1025.98
2018-02-22T01:55:49.561Z,1025.98
2018-02-22T01:55:50.163Z,1025.98
2018-02-22T01:55:50.759Z,1025.97
2018-02-22T01:55:51.359Z,1026.03
2018-02-22T01:56:45.865Z,1026.00
2018-02-22T01:56:46.438Z,1025.96
2018-02-22T01:56:47.037Z,1025.96
2018-02-22T01:56:47.635Z,1025.95
2018-02-22T01:56:48.241Z,1026.00
2018-02-22T01:56:48.838Z,1025.99
2018-02-22T01:56:49.435Z,1025.94
2018-02-22T01:56:50.035Z,1025.98
2018-02-22T01:57:43.492Z,1025.95
2018-02-22T01:57:44.091Z,1025.93
2018-02-22T01:57:44.689Z,1025.94
2018-02-22T01:57:45.293Z,1025.96
2018-02-22T01:57:45.889Z,1025.94
2018-02-22T01:57:46.489Z,1025.99
2018-02-22T01:57:47.088Z,1025.96
2018-02-22T01:57:47.687Z,1025.94
2018-02-22T01:58:42.167Z,1025.91
2018-02-22T01:58:42.767Z,1025.95
2018-02-22T01:58:43.364Z,1025.92
2018-02-22T01:58:43.964Z,1025.92
2018-02-22T01:58:44.564Z,1025.94
2018-02-22T01:58:45.166Z,1025.91
2018-02-22T01:58:45.764Z,1025.92
2018-02-22T01:58:46.369Z,1025.89
2018-02-22T01:59:39.820Z,1025.96
2018-02-22T01:59:40.420Z,1025.95
2018-02-22T01:59:41.016Z,1025.94
2018-02-22T01:59:41.616Z,1025.91
2018-02-22T01:59:42.216Z,1025.91
2018-02-22T01:59:42.816Z,1025.92
2018-02-22T01:59:43.415Z,1025.94
2018-02-22T01:59:44.016Z,1025.89
2018-02-22T02:00:38.495Z,1025.93
2018-02-22T02:00:39.091Z,1025.88
2018-02-22T02:00:39.692Z,1025.94
2018-02-22T02:00:40.291Z,1025.90
2018-02-22T02:00:40.892Z,1025.91
2018-02-22T02:00:41.490Z,1025.93
2018-02-22T02:00:42.089Z,1025.93
2018-02-22T02:00:42.691Z,1025.90
2018-02-22T02:01:37.202Z,1025.89
2018-02-22T02:01:37.770Z,1025.91
2018-02-22T02:01:38.368Z,1025.93
2018-02-22T02:01:38.966Z,1025.94
2018-02-22T02:01:39.566Z,1025.95
2018-02-22T02:01:40.167Z,1025.93
2018-02-22T02:01:40.765Z,1025.92
2018-02-22T02:01:41.368Z,1025.90
2018-02-22T02:02:35.847Z,1025.95
2018-02-22T02:02:36.443Z,1025.93
2018-02-22T02:02:37.043Z,1025.93
2018-02-22T02:02:37.642Z,1025.92
2018-02-22T02:02:38.242Z,1025.90
2018-02-22T02:02:38.842Z,1025.93
2018-02-22T02:02:39.442Z,1025.92
2018-02-22T02:02:40.043Z,1025.93
2018-02-22T02:03:33.498Z,1025.96
2018-02-22T02:03:34.104Z,1025.96
2018-02-22T02:03:34.695Z,1025.97
2018-02-22T02:03:35.296Z,1025.94
2018-02-22T02:03:35.894Z,1025.97
2018-02-22T02:03:36.494Z,1025.98
2018-02-22T02:03:37.095Z,1025.95
2018-02-22T02:03:37.694Z,1025.96
2018-02-22T02:04:31.150Z,1025.93
2018-02-22T02:04:31.749Z,1025.94
2018-02-22T02:04:32.347Z,1025.94
2018-02-22T02:04:32.949Z,1025.95
2018-02-22T02:04:33.545Z,1025.93
2018-02-22T02:04:34.150Z,1025.92
2018-02-22T02:04:34.745Z,1025.91
2018-02-22T02:04:35.349Z,1025.91
2018-02-22T02:05:28.802Z,1025.93
2018-02-22T02:05:29.404Z,1025.92
2018-02-22T02:05:29.998Z,1025.95
2018-02-22T02:05:30.598Z,1025.96
2018-02-22T02:05:31.197Z,1025.95
2018-02-22T02:05:31.810Z,1025.94
2018-02-22T02:05:32.397Z,1025.96
2018-02-22T02:05:33.013Z,1025.90
2018-02-22T02:06:27.479Z,1025.91
2018-02-22T02:06:28.075Z,1025.92
2018-02-22T02:06:28.676Z,1025.92
2018-02-22T02:06:29.273Z,1025.91
2018-02-22T02:06:29.873Z,1025.93
2018-02-22T02:06:30.472Z,1025.93
2018-02-22T02:06:31.072Z,1025.93
2018-02-22T02:06:31.673Z,1025.94
2018-02-22T02:07:25.153Z,1025.93
2018-02-22T02:07:25.728Z,1025.92
2018-02-22T02:07:26.326Z,1025.92
2018-02-22T02:07:26.925Z,1025.96
2018-02-22T02:07:27.525Z,1025.91
2018-02-22T02:07:28.125Z,1025.94
2018-02-22T02:07:28.725Z,1025.94
2018-02-22T02:07:29.325Z,1025.92
2018-02-22T02:08:22.781Z,1025.96
2018-02-22T02:08:23.425Z,1025.93
2018-02-22T02:08:23.983Z,1025.92
2018-02-22T02:08:24.574Z,1025.94
2018-02-22T02:08:25.225Z,1025.95
2018-02-22T02:08:25.785Z,1025.96
2018-02-22T02:08:26.376Z,1025.94
2018-02-22T02:08:26.976Z,1025.94
2018-02-22T02:09:33.137Z,1025.97
2018-02-22T02:09:33.731Z,1025.97
2018-02-22T02:09:34.326Z,1025.95
2018-02-22T02:09:34.926Z,1025.95
2018-02-22T02:09:35.527Z,1025.97
2018-02-22T02:09:36.126Z,1025.97
2018-02-22T02:09:36.725Z,1025.97
2018-02-22T02:09:37.325Z,1025.94
2018-02-22T02:10:30.781Z,1025.93
2018-02-22T02:10:31.381Z,1025.95
2018-02-22T02:10:31.978Z,1025.97
2018-02-22T02:10:32.579Z,1025.91
2018-02-22T02:10:33.178Z,1025.92
2018-02-22T02:10:33.777Z,1025.96
2018-02-22T02:10:34.397Z,1025.92
2018-02-22T02:10:34.978Z,1025.93
2018-02-22T02:11:29.454Z,1025.95
2018-02-22T02:11:30.052Z,1025.91
2018-02-22T02:11:30.653Z,1025.94
2018-02-22T02:11:31.251Z,1025.90
2018-02-22T02:11:31.852Z,1025.92
2018-02-22T02:11:32.452Z,1025.90
2018-02-22T02:11:33.051Z,1025.91
2018-02-22T02:11:33.695Z,1025.92
2018-02-22T02:12:27.142Z,1025.93
2018-02-22T02:12:27.710Z,1025.89
2018-02-22T02:12:28.305Z,1025.93
2018-02-22T02:12:28.904Z,1025.94
2018-02-22T02:12:29.507Z,1025.89
2018-02-22T02:12:30.105Z,1025.95
2018-02-22T02:12:30.704Z,1025.92
2018-02-22T02:12:31.304Z,1025.92
2018-02-22T02:13:24.760Z,1025.93
2018-02-22T02:13:25.357Z,1025.96
2018-02-22T02:13:25.957Z,1025.94
2018-02-22T02:13:26.559Z,1025.95
2018-02-22T02:13:27.160Z,1025.97
2018-02-22T02:13:27.756Z,1025.98
2018-02-22T02:13:28.356Z,1025.93
2018-02-22T02:13:28.956Z,1025.92
2018-02-22T02:14:23.435Z,1025.97
2018-02-22T02:14:24.033Z,1025.95
2018-02-22T02:14:24.632Z,1025.95
2018-02-22T02:14:25.231Z,1025.95
2018-02-22T02:14:25.832Z,1025.96
2018-02-22T02:14:26.431Z,1025.99
2018-02-22T02:14:27.031Z,1025.96
2018-02-22T02:14:27.632Z,1025.97
2018-02-22T02:15:22.110Z,1025.96
2018-02-22T02:15:22.711Z,1025.94
2018-02-22T02:15:23.309Z,1025.96
2018-02-22T02:15:23.908Z,1025.96
2018-02-22T02:15:24.507Z,1025.94
2018-02-22T02:15:25.106Z,1025.98
2018-02-22T02:15:25.706Z,1025.99
2018-02-22T02:15:26.307Z,1025.96
2018-02-22T02:16:20.788Z,1025.98
2018-02-22T02:16:21.383Z,1025.97
2018-02-22T02:16:21.984Z,1025.95
2018-02-22T02:16:22.583Z,1025.96
2018-02-22T02:16:23.185Z,1025.97
2018-02-22T02:16:23.785Z,1025.99
2018-02-22T02:16:24.382Z,1025.95
2018-02-22T02:16:24.982Z,1025.97
2018-02-22T02:17:19.461Z,1025.93
2018-02-22T02:17:20.060Z,1025.97
2018-02-22T02:17:20.658Z,1025.95
2018-02-22T02:17:21.258Z,1025.95
2018-02-22T02:17:21.858Z,1025.93
2018-02-22T02:17:22.458Z,1025.94
2018-02-22T02:17:23.058Z,1025.94
2018-02-22T02:17:23.658Z,1025.92
2018-02-22T02:18:18.170Z,1025.97
2018-02-22T02:18:18.739Z,1025.95
2018-02-22T02:18:19.335Z,1025.92
2018-02-22T02:18:19.934Z,1025.92
2018-02-22T02:18:20.535Z,1025.86
2018-02-22T02:18:21.136Z,1025.95
2018-02-22T02:18:21.734Z,1025.96
2018-02-22T02:18:22.334Z,1025.94
2018-02-22T02:19:15.818Z,1025.92
2018-02-22T02:19:16.429Z,1025.93
2018-02-22T02:19:16.986Z,1025.94
2018-02-22T02:19:17.586Z,1025.92
2018-02-22T02:19:18.187Z,1025.95
2018-02-22T02:19:18.786Z,1025.95
2018-02-22T02:19:19.385Z,1025.91
2018-02-22T02:19:19.986Z,1025.96
2018-02-22T02:20:15.006Z,1025.92
2018-02-22T02:20:15.576Z,1025.89
2018-02-22T02:20:16.176Z,1025.96
2018-02-22T02:20:16.774Z,1025.91
2018-02-22T02:20:17.374Z,1025.94
2018-02-22T02:20:17.974Z,1025.93
2018-02-22T02:20:18.573Z,1025.92
2018-02-22T02:21:12.015Z,1025.94
2018-02-22T02:21:12.616Z,1025.93
2018-02-22T02:21:13.212Z,1025.91
2018-02-22T02:21:13.811Z,1025.93
2018-02-22T02:21:14.414Z,1025.98
2018-02-22T02:21:15.012Z,1025.97
2018-02-22T02:21:15.613Z,1025.95
2018-02-22T02:21:16.212Z,1025.92
2018-02-22T02:22:09.668Z,1025.92
2018-02-22T02:22:10.267Z,1025.91
2018-02-22T02:22:10.865Z,1025.92
2018-02-22T02:22:11.463Z,1025.95
2018-02-22T02:22:12.064Z,1025.93
2018-02-22T02:22:12.663Z,1025.94
2018-02-22T02:22:13.276Z,1025.93
2018-02-22T02:22:13.864Z,1025.93
2018-02-22T02:23:07.321Z,1025.91
2018-02-22T02:23:07.919Z,1025.91
2018-02-22T02:23:08.515Z,1025.93
2018-02-22T02:23:09.115Z,1025.93
2018-02-22T02:23:09.716Z,1025.93
2018-02-22T02:23:10.315Z,1025.93
2018-02-22T02:23:10.914Z,1025.96
2018-02-22T02:23:11.515Z,1025.90
2018-02-22T02:24:06.021Z,1025.93
2018-02-22T02:24:06.595Z,1025.94
2018-02-22T02:24:07.193Z,1025.89
2018-02-22T02:24:07.789Z,1025.88
2018-02-22T02:24:08.389Z,1025.89
2018-02-22T02:24:08.988Z,1025.90
2018-02-22T02:24:09.588Z,1025.92
2018-02-22T02:24:10.188Z,1025.89
2018-02-22T02:25:03.646Z,1025.92
2018-02-22T02:25:04.249Z,1025.89
2018-02-22T02:25:04.842Z,1025.89
2018-02-22T02:25:05.445Z,1025.93
2018-02-22T02:25:06.044Z,1025.91
2018-02-22T02:25:06.642Z,1025.89
2018-02-22T02:25:07.241Z,1025.90
2018-02-22T02:25:07.841Z,1025.94
2018-02-22T02:26:02.321Z,1025.89
2018-02-22T02:26:02.917Z,1025.92
2018-02-22T02:26:03.518Z,1025.90
2018-02-22T02:26:04.118Z,1025.91
2018-02-22T02:26:04.717Z,1025.84
2018-02-22T02:26:05.316Z,1025.91
2018-02-22T02:26:05.917Z,1025.90
2018-02-22T02:26:06.521Z,1025.90
2018-02-22T02:26:59.974Z,1025.86
2018-02-22T02:27:00.581Z,1025.94
2018-02-22T02:27:01.172Z,1025.90
2018-02-22T02:27:01.769Z,1025.93
2018-02-22T02:27:02.369Z,1025.93
2018-02-22T02:27:02.970Z,1025.90
2018-02-22T02:27:03.569Z,1025.95
2018-02-22T02:27:04.168Z,1025.92
2018-02-22T02:27:57.624Z,1025.86
2018-02-22T02:27:58.223Z,1025.86
2018-02-22T02:27:58.822Z,1025.89
2018-02-22T02:27:59.425Z,1025.87
2018-02-22T02:28:00.025Z,1025.86
2018-02-22T02:28:00.620Z,1025.89
2018-02-22T02:28:01.219Z,1025.86
2018-02-22T02:28:01.820Z,1025.88
2018-02-22T02:28:55.311Z,1025.89
2018-02-22T02:28:55.875Z,1025.85
2018-02-22T02:28:56.473Z,1025.87
2018-02-22T02:28:57.082Z,1025.86
2018-02-22T02:28:57.673Z,1025.87
2018-02-22T02:28:58.281Z,1025.89
2018-02-22T02:28:58.873Z,1025.85
2018-02-22T02:28:59.473Z,1025.87
2018-02-22T02:29:53.950Z,1025.88
2018-02-22T02:29:54.551Z,1025.89
2018-02-22T02:29:55.149Z,1025.88
2018-02-22T02:29:55.749Z,1025.85
2018-02-22T02:29:56.348Z,1025.87
2018-02-22T02:29:56.949Z,1025.84
2018-02-22T02:29:57.548Z,1025.87
2018-02-22T02:29:58.147Z,1025.90
2018-02-22T02:30:52.628Z,1025.91
2018-02-22T02:30:53.223Z,1025.88
2018-02-22T02:30:53.826Z,1025.87
2018-02-22T02:30:54.425Z,1025.90
2018-02-22T02:30:55.023Z,1025.87
2018-02-22T02:30:55.624Z,1025.86
2018-02-22T02:30:56.222Z,1025.89
2018-02-22T02:30:56.826Z,1025.89
2018-02-22T02:31:50.281Z,1025.88
2018-02-22T02:31:50.880Z,1025.88
2018-02-22T02:31:51.476Z,1025.85
2018-02-22T02:31:52.078Z,1025.85
2018-02-22T02:31:52.675Z,1025.88
2018-02-22T02:31:53.284Z,1025.86
2018-02-22T02:31:53.886Z,1025.88
2018-02-22T02:31:54.475Z,1025.85
2018-02-22T02:32:48.958Z,1025.89
2018-02-22T02:32:49.556Z,1025.90
2018-02-22T02:32:50.161Z,1025.88
2018-02-22T02:32:50.751Z,1025.85
2018-02-22T02:32:51.351Z,1025.83
2018-02-22T02:32:51.953Z,1025.83
2018-02-22T02:32:52.551Z,1025.86
2018-02-22T02:32:53.151Z,1025.84
2018-02-22T02:33:46.607Z,1025.89
2018-02-22T02:33:47.207Z,1025.89
2018-02-22T02:33:47.806Z,1025.91
2018-02-22T02:33:48.406Z,1025.90
2018-02-22T02:33:49.003Z,1025.87
2018-02-22T02:33:49.603Z,1025.91
2018-02-22T02:33:50.204Z,1025.89
2018-02-22T02:33:50.804Z,1025.89
2018-02-22T02:34:45.309Z,1025.88
2018-02-22T02:34:45.882Z,1025.89
2018-02-22T02:34:46.481Z,1025.88
2018-02-22T02:34:47.078Z,1025.86
2018-02-22T02:34:47.679Z,1025.88
2018-02-22T02:34:48.281Z,1025.86
2018-02-22T02:34:48.877Z,1025.88
2018-02-22T02:34:49.478Z,1025.87
2018-02-22T02:35:43.958Z,1025.84
2018-02-22T02:35:44.558Z,1025.88
2018-02-22T02:35:45.167Z,1025.85
2018-02-22T02:35:45.757Z,1025.89
2018-02-22T02:35:46.354Z,1025.85
2018-02-22T02:35:46.953Z,1025.83
2018-02-22T02:35:47.553Z,1025.89
2018-02-22T02:35:48.154Z,1025.87
2018-02-22T02:36:42.633Z,1025.86
2018-02-22T02:36:43.237Z,1025.84
2018-02-22T02:36:43.831Z,1025.89
2018-02-22T02:36:44.431Z,1025.85
2018-02-22T02:36:45.038Z,1025.89
2018-02-22T02:36:45.631Z,1025.89
2018-02-22T02:36:46.229Z,1025.88
2018-02-22T02:36:46.829Z,1025.85
2018-02-22T02:54:09.599Z,1025.82
2018-02-22T02:54:10.174Z,1025.82
2018-02-22T02:54:10.771Z,1025.83
2018-02-22T02:54:11.375Z,1025.80
2018-02-22T02:54:11.976Z,1025.83
2018-02-22T02:54:12.573Z,1025.78
2018-02-22T02:54:13.170Z,1025.79
2018-02-22T02:54:13.769Z,1025.84
2018-02-22T02:55:07.252Z,1025.81
2018-02-22T02:55:07.825Z,1025.84
2018-02-22T02:55:08.427Z,1025.80
2018-02-22T02:55:09.027Z,1025.84
2018-02-22T02:55:09.624Z,1025.82
2018-02-22T02:55:10.223Z,1025.80
2018-02-22T02:55:10.826Z,1025.84
2018-02-22T02:55:11.426Z,1025.80
2018-02-22T02:56:04.908Z,1025.79
2018-02-22T02:56:05.477Z,1025.80
2018-02-22T02:56:06.078Z,1025.82
2018-02-22T02:56:06.676Z,1025.79
2018-02-22T02:56:07.275Z,1025.82
2018-02-22T02:56:07.889Z,1025.80
2018-02-22T02:56:08.478Z,1025.78
2018-02-22T02:56:09.074Z,1025.80
2018-02-22T02:57:02.559Z,1025.81
2018-02-22T02:57:03.129Z,1025.79
2018-02-22T02:57:03.728Z,1025.81
2018-02-22T02:57:04.327Z,1025.80
2018-02-22T02:57:04.929Z,1025.80
2018-02-22T02:57:05.530Z,1025.78
2018-02-22T02:57:06.127Z,1025.78
2018-02-22T02:57:06.726Z,1025.80
2018-02-22T02:58:00.210Z,1025.81
2018-02-22T02:58:00.781Z,1025.84
2018-02-22T02:58:01.386Z,1025.81
2018-02-22T02:58:01.980Z,1025.83
2018-02-22T02:58:02.580Z,1025.80
2018-02-22T02:58:03.181Z,1025.80
2018-02-22T02:58:03.779Z,1025.78
2018-02-22T02:58:04.380Z,1025.80
2018-02-22T02:58:57.861Z,1025.78
2018-02-22T02:58:58.433Z,1025.78
2018-02-22T02:58:59.033Z,1025.80
2018-02-22T02:58:59.633Z,1025.81
2018-02-22T02:59:00.232Z,1025.78
2018-02-22T02:59:00.830Z,1025.74
2018-02-22T02:59:01.432Z,1025.77
2018-02-22T02:59:02.036Z,1025.79
2018-02-22T02:59:55.517Z,1025.81
2018-02-22T02:59:56.085Z,1025.79
2018-02-22T02:59:56.684Z,1025.76
2018-02-22T02:59:57.287Z,1025.79
2018-02-22T02:59:57.895Z,1025.78
2018-02-22T02:59:58.484Z,1025.81
2018-02-22T02:59:59.086Z,1025.74
2018-02-22T02:59:59.682Z,1025.79
2018-02-22T03:00:54.164Z,1025.79
2018-02-22T03:00:54.759Z,1025.79
2018-02-22T03:00:55.369Z,1025.80
2018-02-22T03:00:55.959Z,1025.79
2018-02-22T03:00:56.561Z,1025.78
2018-02-22T03:00:57.158Z,1025.82
2018-02-22T03:00:57.760Z,1025.77
2018-02-22T03:00:58.363Z,1025.79
2018-02-22T03:01:51.840Z,1025.79
2018-02-22T03:01:52.412Z,1025.79
2018-02-22T03:01:53.012Z,1025.78
2018-02-22T03:01:53.614Z,1025.77
2018-02-22T03:01:54.212Z,1025.76
2018-02-22T03:01:54.812Z,1025.80
2018-02-22T03:01:55.412Z,1025.77
2018-02-22T03:01:56.013Z,1025.78
2018-02-22T03:02:49.468Z,1025.77
2018-02-22T03:02:50.066Z,1025.80
2018-02-22T03:02:50.665Z,1025.80
2018-02-22T03:02:51.264Z,1025.80
2018-02-22T03:02:51.864Z,1025.81
2018-02-22T03:02:52.464Z,1025.77
2018-02-22T03:02:53.064Z,1025.77
2018-02-22T03:02:53.668Z,1025.81
2018-02-22T03:03:48.154Z,1025.78
2018-02-22T03:03:48.740Z,1025.75
2018-02-22T03:03:49.339Z,1025.79
2018-02-22T03:03:49.943Z,1025.79
2018-02-22T03:03:50.539Z,1025.78
2018-02-22T03:03:51.137Z,1025.73
2018-02-22T03:03:51.740Z,1025.79
2018-02-22T03:03:52.338Z,1025.78
2018-02-22T03:04:46.822Z,1025.75
2018-02-22T03:04:47.415Z,1025.76
2018-02-22T03:04:48.020Z,1025.76
2018-02-22T03:04:48.616Z,1025.78
2018-02-22T03:04:49.216Z,1025.74
2018-02-22T03:04:49.816Z,1025.82
2018-02-22T03:04:50.415Z,1025.77
2018-02-22T03:04:51.016Z,1025.75
2018-02-22T03:05:44.472Z,1025.75
2018-02-22T03:05:45.071Z,1025.74
2018-02-22T03:05:45.669Z,1025.74
2018-02-22T03:05:46.269Z,1025.74
2018-02-22T03:05:46.868Z,1025.73
2018-02-22T03:05:47.468Z,1025.72
2018-02-22T03:05:48.067Z,1025.72
2018-02-22T03:05:48.665Z,1025.72
2018-02-22T03:06:42.149Z,1025.75
2018-02-22T03:06:42.723Z,1025.71
2018-02-22T03:06:43.324Z,1025.72
2018-02-22T03:06:43.921Z,1025.74
2018-02-22T03:06:44.520Z,1025.75
2018-02-22T03:06:45.118Z,1025.73
2018-02-22T03:06:45.718Z,1025.73
2018-02-22T03:06:46.319Z,1025.75
2018-02-22T03:07:39.774Z,1025.76
2018-02-22T03:07:40.375Z,1025.75
2018-02-22T03:07:40.976Z,1025.74
2018-02-22T03:07:41.570Z,1025.72
2018-02-22T03:07:42.171Z,1025.76
2018-02-22T03:07:42.770Z,1025.71
2018-02-22T03:07:43.373Z,1025.74
2018-02-22T03:07:43.972Z,1025.74
2018-02-22T03:08:37.425Z,1025.71
2018-02-22T03:08:38.034Z,1025.71
2018-02-22T03:08:38.624Z,1025.73
2018-02-22T03:08:39.222Z,1025.73
2018-02-22T03:08:39.823Z,1025.75
2018-02-22T03:08:40.422Z,1025.71
2018-02-22T03:08:41.023Z,1025.72
2018-02-22T03:08:41.621Z,1025.73
2018-02-22T03:09:36.102Z,1025.74
2018-02-22T03:09:36.704Z,1025.73
2018-02-22T03:09:37.298Z,1025.71
2018-02-22T03:09:37.897Z,1025.70
2018-02-22T03:09:38.497Z,1025.72
2018-02-22T03:09:39.096Z,1025.74
2018-02-22T03:09:39.698Z,1025.72
2018-02-22T03:09:40.297Z,1025.70
2018-02-22T03:10:33.754Z,1025.71
2018-02-22T03:10:34.352Z,1025.69
2018-02-22T03:10:34.950Z,1025.73
2018-02-22T03:10:35.572Z,1025.71
2018-02-22T03:10:36.149Z,1025.74
2018-02-22T03:10:36.749Z,1025.71
2018-02-22T03:10:37.349Z,1025.70
2018-02-22T03:10:37.949Z,1025.69
2018-02-22T03:11:31.436Z,1025.70
2018-02-22T03:11:32.002Z,1025.68
2018-02-22T03:11:32.601Z,1025.72
2018-02-22T03:11:33.201Z,1025.68
2018-02-22T03:11:33.809Z,1025.71
2018-02-22T03:11:34.399Z,1025.68
2018-02-22T03:11:35.001Z,1025.67
2018-02-22T03:11:35.600Z,1025.69
2018-02-22T03:12:29.060Z,1025.72
2018-02-22T03:12:29.656Z,1025.67
2018-02-22T03:12:30.254Z,1025.70
2018-02-22T03:12:30.855Z,1025.71
2018-02-22T03:12:31.454Z,1025.69
2018-02-22T03:12:32.053Z,1025.70
2018-02-22T03:12:32.653Z,1025.73
2018-02-22T03:12:33.253Z,1025.68
2018-02-22T03:13:27.732Z,1025.66
2018-02-22T03:13:28.334Z,1025.68
2018-02-22T03:13:28.929Z,1025.70
2018-02-22T03:13:29.528Z,1025.67
2018-02-22T03:13:30.128Z,1025.68
2018-02-22T03:13:30.726Z,1025.72
2018-02-22T03:13:31.326Z,1025.69
2018-02-22T03:13:31.928Z,1025.69
2018-02-22T03:14:26.410Z,1025.71
2018-02-22T03:14:27.005Z,1025.68
2018-02-22T03:14:27.604Z,1025.69
2018-02-22T03:14:28.205Z,1025.67
2018-02-22T03:14:28.803Z,1025.65
2018-02-22T03:14:29.403Z,1025.67
2018-02-22T03:14:30.003Z,1025.71
2018-02-22T03:14:30.604Z,1025.68
2018-02-22T03:15:24.062Z,1025.70
2018-02-22T03:15:24.659Z,1025.73
2018-02-22T03:15:25.257Z,1025.66
2018-02-22T03:15:25.857Z,1025.66
2018-02-22T03:15:26.457Z,1025.68
2018-02-22T03:15:27.057Z,1025.72
2018-02-22T03:15:27.663Z,1025.72
2018-02-22T03:15:28.256Z,1025.69
2018-02-22T03:16:21.711Z,1025.68
2018-02-22T03:16:22.310Z,1025.69
2018-02-22T03:16:22.908Z,1025.65
2018-02-22T03:16:23.509Z,1025.66
2018-02-22T03:16:24.108Z,1025.65
2018-02-22T03:16:24.708Z,1025.69
2018-02-22T03:16:25.309Z,1025.68
2018-02-22T03:16:25.907Z,1025.71
2018-02-22T03:17:20.416Z,1025.73
2018-02-22T03:17:20.987Z,1025.70
2018-02-22T03:17:21.585Z,1025.68
2018-02-22T03:17:22.184Z,1025.68
2018-02-22T03:17:22.781Z,1025.69
2018-02-22T03:17:23.382Z,1025.70
2018-02-22T03:17:23.981Z,1025.71
2018-02-22T03:17:24.582Z,1025.72
2018-02-22T03:18:19.064Z,1025.67
2018-02-22T03:18:19.662Z,1025.68
2018-02-22T03:18:20.260Z,1025.67
2018-02-22T03:18:20.862Z,1025.67
2018-02-22T03:18:21.479Z,1025.68
2018-02-22T03:18:22.059Z,1025.69
2018-02-22T03:18:22.657Z,1025.65
2018-02-22T03:18:23.258Z,1025.69
2018-02-22T03:19:16.741Z,1025.70
2018-02-22T03:19:17.313Z,1025.72
2018-02-22T03:19:17.912Z,1025.70
2018-02-22T03:19:18.511Z,1025.70
2018-02-22T03:19:19.110Z,1025.69
2018-02-22T03:19:19.712Z,1025.68
2018-02-22T03:19:20.338Z,1025.69
2018-02-22T03:19:20.912Z,1025.69
2018-02-22T03:20:26.040Z,1025.75
2018-02-22T03:20:26.644Z,1025.73
2018-02-22T03:20:27.236Z,1025.72
2018-02-22T03:20:27.836Z,1025.73
2018-02-22T03:20:28.436Z,1025.75
2018-02-22T03:20:29.039Z,1025.70
2018-02-22T03:20:29.636Z,1025.73
2018-02-22T03:20:30.236Z,1025.70
2018-02-22T03:21:24.715Z,1025.70
2018-02-22T03:21:25.312Z,1025.73
2018-02-22T03:21:25.911Z,1025.72
2018-02-22T03:21:26.510Z,1025.74
2018-02-22T03:21:27.115Z,1025.74
2018-02-22T03:21:27.710Z,1025.71
2018-02-22T03:21:28.309Z,1025.71
2018-02-22T03:21:28.910Z,1025.74
2018-02-22T03:22:22.400Z,1025.69
2018-02-22T03:22:22.966Z,1025.63
2018-02-22T03:22:23.564Z,1025.65
2018-02-22T03:22:24.165Z,1025.67
2018-02-22T03:22:24.763Z,1025.67
2018-02-22T03:22:25.363Z,1025.69
2018-02-22T03:22:25.963Z,1025.69
2018-02-22T03:22:26.563Z,1025.68
2018-02-22T03:23:21.042Z,1025.72
2018-02-22T03:23:21.642Z,1025.63
2018-02-22T03:23:22.237Z,1025.65
2018-02-22T03:23:22.838Z,1025.70
2018-02-22T03:23:23.441Z,1025.65
2018-02-22T03:23:24.039Z,1025.69
2018-02-22T03:23:24.637Z,1025.67
2018-02-22T03:23:25.239Z,1025.64
2018-02-22T03:24:18.694Z,1025.68
2018-02-22T03:24:19.293Z,1025.62
2018-02-22T03:24:19.893Z,1025.65
2018-02-22T03:24:20.491Z,1025.68
2018-02-22T03:24:21.091Z,1025.61
2018-02-22T03:24:21.691Z,1025.67
2018-02-22T03:24:22.290Z,1025.65
2018-02-22T03:24:22.896Z,1025.66
2018-02-22T03:25:16.346Z,1025.71
2018-02-22T03:25:16.944Z,1025.68
2018-02-22T03:25:17.546Z,1025.66
2018-02-22T03:25:18.144Z,1025.71
2018-02-22T03:25:18.742Z,1025.69
2018-02-22T03:25:19.340Z,1025.68
2018-02-22T03:25:19.941Z,1025.71